createdAt,value
2022-12-19T00:00:22.967Z,-0.64
2022-12-19T00:01:23.136Z,-0.48
2022-12-19T00:02:23.317Z,-0.48
2022-12-19T00:03:23.418Z,-0.48
2022-12-19T00:04:23.467Z,-0.64
2022-12-19T00:05:23.620Z,-0.48
2022-12-19T00:06:23.767Z,-0.64
2022-12-19T00:07:23.878Z,-0.72
2022-12-19T00:08:23.974Z,-0.4
2022-12-19T00:09:24.120Z,-0.64
2022-12-19T00:10:24.289Z,-0.8
2022-12-19T00:11:24.425Z,-0.72
2022-12-19T00:12:24.581Z,-0.88
2022-12-19T00:13:24.737Z,-0.8
2022-12-19T00:14:24.881Z,-0.8
2022-12-19T00:15:25.032Z,-0.88
2022-12-19T00:16:25.216Z,-1.2
2022-12-19T00:17:25.284Z,-1.2
2022-12-19T00:18:25.400Z,-1.28
2022-12-19T00:19:25.538Z,-1.44
2022-12-19T00:20:25.643Z,-1.28
2022-12-19T00:21:25.789Z,-1.28
2022-12-19T00:22:25.935Z,-1.44
2022-12-19T00:23:26.091Z,-1.52
2022-12-19T00:24:26.244Z,-1.52
2022-12-19T00:25:26.391Z,-1.44
2022-12-19T00:26:26.567Z,-1.6
2022-12-19T00:27:26.700Z,-1.68
2022-12-19T00:28:26.852Z,-1.68
2022-12-19T00:29:27.003Z,-1.84
2022-12-19T00:30:27.168Z,-1.84
2022-12-19T00:31:27.389Z,-1.84
2022-12-19T00:32:27.394Z,-1.68
2022-12-19T00:33:27.511Z,-1.84
2022-12-19T00:34:27.659Z,-1.84
2022-12-19T00:35:27.812Z,-1.84
2022-12-19T00:36:27.957Z,-1.92
2022-12-19T00:37:28.087Z,-1.84
2022-12-19T00:38:28.211Z,-1.92
2022-12-19T00:39:28.371Z,-1.92
2022-12-19T00:40:28.472Z,-1.92
2022-12-19T00:41:28.617Z,-1.84
2022-12-19T00:42:28.724Z,-1.84
2022-12-19T00:43:28.872Z,-1.92
2022-12-19T00:44:29.035Z,-2
2022-12-19T00:45:29.258Z,-1.92
2022-12-19T00:46:29.319Z,-2.08
2022-12-19T00:47:29.499Z,-2.08
2022-12-19T00:48:29.669Z,-2.24
2022-12-19T00:49:29.784Z,-2.24
2022-12-19T00:50:29.928Z,-2.24
2022-12-19T00:51:30.098Z,-2.32
2022-12-19T00:52:30.241Z,-2.24
2022-12-19T00:53:30.325Z,-2.24
2022-12-19T00:54:30.587Z,-2.32
2022-12-19T00:55:30.624Z,-2.24
2022-12-19T00:56:30.796Z,-2.32
2022-12-19T00:57:30.950Z,-2.32
2022-12-19T00:58:34.469Z,-2.4
2022-12-19T00:59:31.202Z,-2.24
2022-12-19T01:00:31.336Z,-2.4
2022-12-19T01:01:31.560Z,-2.4
2022-12-19T01:02:31.757Z,-2.32
2022-12-19T01:03:31.756Z,-2.32
2022-12-19T01:04:34.434Z,-2.32
2022-12-19T01:05:32.064Z,-2.4
2022-12-19T01:06:32.166Z,-2.24
2022-12-19T01:07:32.292Z,-2.24
2022-12-19T01:08:32.403Z,-2.32
2022-12-19T01:09:32.560Z,-2.08
2022-12-19T01:10:32.711Z,-2.24
2022-12-19T01:11:32.823Z,-2.24
2022-12-19T01:12:32.960Z,-2.32
2022-12-19T01:13:33.119Z,-2.32
2022-12-19T01:14:33.269Z,-2.4
2022-12-19T01:15:33.406Z,-2.4
2022-12-19T01:16:33.575Z,-2.48
2022-12-19T01:17:33.628Z,-2.64
2022-12-19T01:18:33.759Z,-2.72
2022-12-19T01:19:34.583Z,-2.8
2022-12-19T01:20:33.996Z,-2.8
2022-12-19T01:21:34.147Z,-2.72
2022-12-19T01:22:34.265Z,-2.64
2022-12-19T01:23:34.440Z,-2.64
2022-12-19T01:24:34.587Z,-2.72
2022-12-19T01:25:34.733Z,-2.72
2022-12-19T01:26:34.839Z,-2.48
2022-12-19T01:27:34.987Z,-2.48
2022-12-19T01:28:35.098Z,-2.64
2022-12-19T01:29:36.767Z,-2.64
2022-12-19T01:30:35.376Z,-2.4
2022-12-19T01:31:35.525Z,-2.64
2022-12-19T01:32:35.644Z,-2.48
2022-12-19T01:33:35.748Z,-2.48
2022-12-19T01:34:35.894Z,-2.64
2022-12-19T01:35:36.051Z,-2.48
2022-12-19T01:36:39.991Z,-2.48
2022-12-19T01:37:36.311Z,-2.48
2022-12-19T01:38:36.453Z,-2.64
2022-12-19T01:39:36.611Z,-2.64
2022-12-19T01:40:36.759Z,-2.48
2022-12-19T01:41:36.912Z,-2.48
2022-12-19T01:42:37.023Z,-2.4
2022-12-19T01:43:37.158Z,-2.48
2022-12-19T01:44:37.308Z,-2.4
2022-12-19T01:45:40.882Z,-2.48
2022-12-19T01:46:37.988Z,-2.48
2022-12-19T01:47:38.098Z,-2.64
2022-12-19T01:48:38.257Z,-2.4
2022-12-19T01:49:38.411Z,-2.48
2022-12-19T01:50:38.547Z,-2.64
2022-12-19T01:51:38.365Z,-2.72
2022-12-19T01:52:38.458Z,-2.64
2022-12-19T01:53:44.675Z,-2.72
2022-12-19T01:54:38.745Z,-2.72
2022-12-19T01:55:38.878Z,-2.72
2022-12-19T01:56:39.011Z,-2.72
2022-12-19T01:57:39.164Z,-2.8
2022-12-19T01:58:39.306Z,-2.8
2022-12-19T01:59:39.469Z,-2.8
2022-12-19T02:00:39.594Z,-2.88
2022-12-19T02:01:40.915Z,-2.88
2022-12-19T02:02:39.996Z,-2.88
2022-12-19T02:03:40.051Z,-2.88
2022-12-19T02:04:40.142Z,-2.88
2022-12-19T02:05:40.315Z,-2.88
2022-12-19T02:06:40.458Z,-3.04
2022-12-19T02:07:40.620Z,-3.04
2022-12-19T02:08:40.765Z,-3.12
2022-12-19T02:09:40.925Z,-3.12
2022-12-19T02:10:41.071Z,-3.12
2022-12-19T02:11:41.230Z,-3.12
2022-12-19T02:12:41.392Z,-3.12
2022-12-19T02:13:41.525Z,-3.04
2022-12-19T02:14:41.670Z,-3.12
2022-12-19T02:15:41.820Z,-3.12
2022-12-19T02:16:42.016Z,-3.04
2022-12-19T02:17:42.087Z,-3.12
2022-12-19T02:18:42.236Z,-3.12
2022-12-19T02:19:42.384Z,-3.12
2022-12-19T02:20:42.533Z,-3.12
2022-12-19T02:21:42.688Z,-3.12
2022-12-19T02:22:42.844Z,-3.04
2022-12-19T02:23:43.001Z,-3.12
2022-12-19T02:24:43.151Z,-3.04
2022-12-19T02:25:43.308Z,-3.12
2022-12-19T02:26:43.459Z,-3.2
2022-12-19T02:27:43.605Z,-3.12
2022-12-19T02:28:43.769Z,-3.12
2022-12-19T02:29:43.929Z,-3.12
2022-12-19T02:30:44.050Z,-3.12
2022-12-19T02:31:44.209Z,-3.12
2022-12-19T02:32:44.319Z,-3.2
2022-12-19T02:33:44.462Z,-3.12
2022-12-19T02:34:44.815Z,-3.12
2022-12-19T02:35:44.764Z,-3.12
2022-12-19T02:36:45.471Z,-3.12
2022-12-19T02:37:45.072Z,-3.12
2022-12-19T02:38:45.183Z,-3.04
2022-12-19T02:39:45.331Z,-3.04
2022-12-19T02:40:45.476Z,-3.04
2022-12-19T02:41:45.635Z,-3.04
2022-12-19T02:42:45.790Z,-3.04
2022-12-19T02:43:45.936Z,-3.04
2022-12-19T02:44:46.094Z,-3.04
2022-12-19T02:45:46.262Z,-3.12
2022-12-19T02:46:46.327Z,-3.04
2022-12-19T02:47:46.501Z,-3.12
2022-12-19T02:48:46.651Z,-3.04
2022-12-19T02:49:46.794Z,-3.12
2022-12-19T02:50:47.372Z,-3.2
2022-12-19T02:51:47.111Z,-2.88
2022-12-19T02:52:47.257Z,-3.12
2022-12-19T02:53:47.404Z,-3.04
2022-12-19T02:54:47.554Z,-2.88
2022-12-19T02:55:47.707Z,-2.88
2022-12-19T02:56:47.860Z,-2.88
2022-12-19T02:57:48.009Z,-2.88
2022-12-19T02:58:48.168Z,-2.88
2022-12-19T02:59:48.314Z,-3.04
2022-12-19T03:00:48.415Z,-2.8
2022-12-19T03:01:48.682Z,-2.72
2022-12-19T03:02:51.168Z,-2.8
2022-12-19T03:03:48.889Z,-2.8
2022-12-19T03:04:49.031Z,-2.72
2022-12-19T03:05:49.177Z,-2.72
2022-12-19T03:06:49.336Z,-2.72
2022-12-19T03:07:49.476Z,-2.72
2022-12-19T03:08:49.588Z,-2.72
2022-12-19T03:09:49.728Z,-2.72
2022-12-19T03:10:49.892Z,-2.64
2022-12-19T03:11:50.030Z,-2.64
2022-12-19T03:12:50.188Z,-2.48
2022-12-19T03:13:50.344Z,-2.4
2022-12-19T03:14:50.497Z,-2.4
2022-12-19T03:15:50.630Z,-2.32
2022-12-19T03:16:50.836Z,-2.32
2022-12-19T03:17:50.960Z,-2.4
2022-12-19T03:18:51.103Z,-2.32
2022-12-19T03:19:51.274Z,-2.4
2022-12-19T03:20:51.407Z,-2.32
2022-12-19T03:21:51.560Z,-2.4
2022-12-19T03:22:51.701Z,-2.4
2022-12-19T03:23:51.848Z,-2.4
2022-12-19T03:24:52.014Z,-2.4
2022-12-19T03:25:52.141Z,-2.4
2022-12-19T03:26:52.301Z,-2.64
2022-12-19T03:27:52.470Z,-2.64
2022-12-19T03:28:52.620Z,-2.64
2022-12-19T03:29:53.408Z,-2.72
2022-12-19T03:30:53.020Z,-2.72
2022-12-19T03:31:53.360Z,-2.8
2022-12-19T03:32:53.512Z,-2.72
2022-12-19T03:33:53.719Z,-2.8
2022-12-19T03:34:53.919Z,-2.8
2022-12-19T03:35:53.577Z,-2.8
2022-12-19T03:36:53.739Z,-2.72
2022-12-19T03:37:53.888Z,-2.64
2022-12-19T03:38:54.040Z,-2.72
2022-12-19T03:39:54.208Z,-2.48
2022-12-19T03:40:54.337Z,-2.64
2022-12-19T03:41:54.487Z,-2.48
2022-12-19T03:42:54.643Z,-2.48
2022-12-19T03:43:54.792Z,-2.48
2022-12-19T03:44:54.945Z,-2.48
2022-12-19T03:45:55.062Z,-2.48
2022-12-19T03:46:55.196Z,-2.48
2022-12-19T03:47:55.363Z,-2.64
2022-12-19T03:48:55.501Z,-2.72
2022-12-19T03:49:55.646Z,-2.64
2022-12-19T03:50:55.808Z,-2.72
2022-12-19T03:51:59.311Z,-2.64
2022-12-19T03:52:56.078Z,-2.72
2022-12-19T03:53:56.229Z,-2.64
2022-12-19T03:54:56.358Z,-2.48
2022-12-19T03:55:56.512Z,-2.64
2022-12-19T03:56:56.674Z,-2.64
2022-12-19T03:57:56.819Z,-2.64
2022-12-19T03:58:56.966Z,-2.48
2022-12-19T03:59:57.125Z,-2.48
2022-12-19T04:00:57.280Z,-2.4
2022-12-19T04:01:57.499Z,-2.48
2022-12-19T04:02:57.546Z,-2.48
2022-12-19T04:03:57.668Z,-2.48
2022-12-19T04:04:57.787Z,-2.48
2022-12-19T04:05:57.939Z,-2.48
2022-12-19T04:06:58.034Z,-2.48
2022-12-19T04:07:58.182Z,-2.48
2022-12-19T04:08:58.341Z,-2.48
2022-12-19T04:09:58.491Z,-2.48
2022-12-19T04:10:58.637Z,-2.64
2022-12-19T04:11:58.742Z,-2.64
2022-12-19T04:12:58.890Z,-2.64
2022-12-19T04:13:58.992Z,-2.64
2022-12-19T04:14:59.148Z,-2.64
2022-12-19T04:15:59.334Z,-2.48
2022-12-19T04:16:59.382Z,-2.48
2022-12-19T04:17:59.550Z,-2.4
2022-12-19T04:18:59.696Z,-2.48
2022-12-19T04:19:59.860Z,-2.4
2022-12-19T04:21:00.007Z,-2.48
2022-12-19T04:22:00.162Z,-2.48
2022-12-19T04:23:00.305Z,-2.4
2022-12-19T04:24:00.448Z,-2.48
2022-12-19T04:25:00.624Z,-2.48
2022-12-19T04:26:00.765Z,-2.4
2022-12-19T04:27:00.915Z,-2.4
2022-12-19T04:28:01.062Z,-2.48
2022-12-19T04:29:01.217Z,-2.4
2022-12-19T04:30:01.381Z,-2.48
2022-12-19T04:31:01.548Z,-2.48
2022-12-19T04:32:01.619Z,-2.4
2022-12-19T04:33:01.774Z,-2.48
2022-12-19T04:34:01.917Z,-2.4
2022-12-19T04:35:02.078Z,-2.48
2022-12-19T04:36:02.221Z,-2.4
2022-12-19T04:37:02.397Z,-2.4
2022-12-19T04:38:02.537Z,-2.48
2022-12-19T04:39:02.675Z,-2.48
2022-12-19T04:40:02.826Z,-2.4
2022-12-19T04:41:02.981Z,-2.4
2022-12-19T04:42:03.125Z,-2.4
2022-12-19T04:43:03.290Z,-2.48
2022-12-19T04:44:03.396Z,-2.4
2022-12-19T04:45:03.542Z,-2.4
2022-12-19T04:46:03.732Z,-2.32
2022-12-19T04:47:03.798Z,-2.32
2022-12-19T04:48:03.885Z,-2.4
2022-12-19T04:49:04.041Z,-2.4
2022-12-19T04:50:04.198Z,-2.4
2022-12-19T04:51:04.363Z,-2.4
2022-12-19T04:52:04.497Z,-2.48
2022-12-19T04:53:04.645Z,-2.4
2022-12-19T04:54:04.797Z,-2.48
2022-12-19T04:55:04.968Z,-2.4
2022-12-19T04:56:05.125Z,-2.48
2022-12-19T04:57:05.244Z,-2.48
2022-12-19T04:58:05.414Z,-2.48
2022-12-19T04:59:05.560Z,-2.48
2022-12-19T05:00:05.716Z,-2.4
2022-12-19T05:01:05.851Z,-2.4
2022-12-19T05:02:06.022Z,-2.32
2022-12-19T05:03:06.117Z,-2.32
2022-12-19T05:04:06.249Z,-2.4
2022-12-19T05:05:06.363Z,-2.48
2022-12-19T05:06:06.513Z,-2.32
2022-12-19T05:07:06.668Z,-2.4
2022-12-19T05:08:06.819Z,-2.48
2022-12-19T05:09:06.963Z,-2.48
2022-12-19T05:10:07.123Z,-2.4
2022-12-19T05:11:07.291Z,-2.4
2022-12-19T05:12:07.365Z,-2.48
2022-12-19T05:13:07.532Z,-2.48
2022-12-19T05:14:07.631Z,-2.4
2022-12-19T05:15:07.799Z,-2.4
2022-12-19T05:16:08.070Z,-2.4
2022-12-19T05:17:08.018Z,-2.4
2022-12-19T05:18:08.167Z,-2.32
2022-12-19T05:19:08.286Z,-2.24
2022-12-19T05:20:08.436Z,-2.32
2022-12-19T05:21:08.588Z,-2.24
2022-12-19T05:22:08.742Z,-2
2022-12-19T05:23:15.303Z,-2.08
2022-12-19T05:24:09.059Z,-2.24
2022-12-19T05:25:09.178Z,-2.32
2022-12-19T05:26:09.310Z,-2.24
2022-12-19T05:27:09.596Z,-2.24
2022-12-19T05:28:09.583Z,-2.24
2022-12-19T05:29:09.751Z,-2.24
2022-12-19T05:30:09.924Z,-2.24
2022-12-19T05:31:10.067Z,-2.08
2022-12-19T05:32:10.208Z,-2.08
2022-12-19T05:33:10.364Z,-2
2022-12-19T05:34:10.505Z,-2.08
2022-12-19T05:35:10.666Z,-2
2022-12-19T05:36:10.801Z,-1.92
2022-12-19T05:37:10.954Z,-1.84
2022-12-19T05:38:11.108Z,-1.84
2022-12-19T05:39:11.259Z,-2
2022-12-19T05:40:11.412Z,-2
2022-12-19T05:41:11.525Z,-2
2022-12-19T05:42:12.587Z,-2
2022-12-19T05:43:11.836Z,-1.92
2022-12-19T05:44:11.976Z,-1.92
2022-12-19T05:45:12.126Z,-1.92
2022-12-19T05:46:12.283Z,-1.84
2022-12-19T05:47:12.409Z,-1.84
2022-12-19T05:48:12.580Z,-2
2022-12-19T05:49:12.711Z,-1.92
2022-12-19T05:50:12.865Z,-1.92
2022-12-19T05:51:13.026Z,-1.84
2022-12-19T05:52:13.165Z,-1.92
2022-12-19T05:53:13.320Z,-2
2022-12-19T05:54:13.479Z,-1.84
2022-12-19T05:55:14.158Z,-1.84
2022-12-19T05:56:13.743Z,-1.84
2022-12-19T05:57:13.830Z,-1.92
2022-12-19T05:58:13.980Z,-1.92
2022-12-19T05:59:14.135Z,-1.84
2022-12-19T06:00:14.846Z,-1.92
2022-12-19T06:01:14.387Z,-1.92
2022-12-19T06:02:14.653Z,-1.92
2022-12-19T06:03:14.754Z,-1.92
2022-12-19T06:04:14.850Z,-1.84
2022-12-19T06:05:15.019Z,-1.84
2022-12-19T06:06:15.148Z,-1.92
2022-12-19T06:07:19.290Z,-1.52
2022-12-19T06:08:15.453Z,-1.44
2022-12-19T06:09:15.552Z,-1.28
2022-12-19T06:10:15.712Z,-1.52
2022-12-19T06:11:15.818Z,-1.52
2022-12-19T06:12:15.949Z,-1.44
2022-12-19T06:13:17.696Z,-1.6
2022-12-19T06:14:16.264Z,-1.44
2022-12-19T06:15:16.401Z,-1.44
2022-12-19T06:16:16.594Z,-1.44
2022-12-19T06:17:16.669Z,-1.6
2022-12-19T06:18:16.804Z,-1.6
2022-12-19T06:19:16.952Z,-1.6
2022-12-19T06:20:17.114Z,-1.6
2022-12-19T06:21:17.281Z,-1.44
2022-12-19T06:22:17.430Z,-1.52
2022-12-19T06:23:17.524Z,-1.52
2022-12-19T06:24:17.680Z,-1.44
2022-12-19T06:25:17.827Z,-1.52
2022-12-19T06:26:19.729Z,-1.44
2022-12-19T06:27:18.126Z,-1.44
2022-12-19T06:28:18.291Z,-1.52
2022-12-19T06:29:18.435Z,-1.44
2022-12-19T06:30:18.813Z,-1.2
2022-12-19T06:31:19.066Z,-1.28
2022-12-19T06:32:19.076Z,-1.12
2022-12-19T06:33:19.172Z,-1.12
2022-12-19T06:34:39.786Z,-1.12
2022-12-19T06:35:19.438Z,-1.2
2022-12-19T06:36:19.611Z,-1.12
2022-12-19T06:37:19.740Z,-1.12
2022-12-19T06:38:19.900Z,-0.88
2022-12-19T06:39:20.043Z,-1.04
2022-12-19T06:40:20.185Z,-1.04
2022-12-19T06:41:20.335Z,-1.12
2022-12-19T06:42:20.484Z,-0.88
2022-12-19T06:43:20.667Z,-1.04
2022-12-19T06:44:20.786Z,-0.88
2022-12-19T06:45:20.960Z,-1.04
2022-12-19T06:46:21.090Z,-0.88
2022-12-19T06:47:21.207Z,-0.88
2022-12-19T06:48:21.351Z,-1.04
2022-12-19T06:49:21.519Z,-0.88
2022-12-19T06:50:21.653Z,-0.8
2022-12-19T06:51:21.824Z,-0.88
2022-12-19T06:52:21.973Z,-0.72
2022-12-19T06:53:22.106Z,-0.8
2022-12-19T06:54:22.281Z,-0.64
2022-12-19T06:55:22.416Z,-0.8
2022-12-19T06:56:22.564Z,-0.72
2022-12-19T06:57:22.719Z,-0.72
2022-12-19T06:58:24.321Z,-0.48
2022-12-19T06:59:22.959Z,-0.64
2022-12-19T07:00:23.141Z,-0.64
2022-12-19T07:01:23.407Z,-0.72
2022-12-19T07:02:23.466Z,-0.48
2022-12-19T07:03:23.481Z,-0.64
2022-12-19T07:04:23.614Z,-0.64
2022-12-19T07:05:23.781Z,-0.72
2022-12-19T07:06:23.885Z,-0.72
2022-12-19T07:07:24.028Z,-0.72
2022-12-19T07:08:24.186Z,-0.72
2022-12-19T07:09:24.343Z,-0.4
2022-12-19T07:10:24.581Z,-0.24
2022-12-19T07:11:24.654Z,-0.32
2022-12-19T07:12:24.804Z,-0.4
2022-12-19T07:13:24.938Z,-0.48
2022-12-19T07:14:25.117Z,-0.48
2022-12-19T07:15:25.194Z,-0.72
2022-12-19T07:16:25.382Z,-0.48
2022-12-19T07:17:25.511Z,-0.48
2022-12-19T07:18:25.668Z,-0.72
2022-12-19T07:19:25.806Z,-0.8
2022-12-19T07:20:25.955Z,-0.8
2022-12-19T07:21:26.100Z,-0.8
2022-12-19T07:22:26.250Z,-0.72
2022-12-19T07:23:26.408Z,-0.8
2022-12-19T07:24:26.556Z,-0.64
2022-12-19T07:25:26.718Z,-0.48
2022-12-19T07:26:26.848Z,-0.48
2022-12-19T07:27:31.837Z,-0.48
2022-12-19T07:28:27.152Z,-0.32
2022-12-19T07:29:27.254Z,-0.24
2022-12-19T07:30:27.452Z,-0.32
2022-12-19T07:31:27.603Z,-0.4
2022-12-19T07:32:27.671Z,-0.32
2022-12-19T07:33:27.779Z,-0.32
2022-12-19T07:34:27.926Z,-0.48
2022-12-19T07:35:28.083Z,-0.32
2022-12-19T07:36:28.231Z,-0.48
2022-12-19T07:37:28.371Z,-0.48
2022-12-19T07:38:28.567Z,-0.48
2022-12-19T07:39:28.691Z,-0.32
2022-12-19T07:40:28.823Z,-0.4
2022-12-19T07:41:29.025Z,-0.08
2022-12-19T07:42:32.426Z,-0.08
2022-12-19T07:43:29.442Z,-0.32
2022-12-19T07:44:29.391Z,-0.24
2022-12-19T07:45:29.580Z,-0.24
2022-12-19T07:46:29.644Z,-0.08
2022-12-19T07:47:29.809Z,-0.24
2022-12-19T07:48:29.911Z,-0.24
2022-12-19T07:49:30.042Z,-0.24
2022-12-19T07:50:30.235Z,-0.24
2022-12-19T07:51:30.352Z,-0.08
2022-12-19T07:52:30.508Z,-0.08
2022-12-19T07:53:30.652Z,0
2022-12-19T07:54:30.796Z,-0.08
2022-12-19T07:55:30.952Z,0.08
2022-12-19T07:56:31.049Z,0.08
2022-12-19T07:57:31.200Z,0.08
2022-12-19T07:58:31.333Z,0.24
2022-12-19T07:59:34.441Z,0.08
2022-12-19T08:00:31.567Z,0
2022-12-19T08:01:31.789Z,0
2022-12-19T08:02:31.837Z,0
2022-12-19T08:03:31.872Z,0.24
2022-12-19T08:04:31.964Z,0.24
2022-12-19T08:05:32.111Z,0.24
2022-12-19T08:06:35.213Z,0.08
2022-12-19T08:07:32.370Z,0.24
2022-12-19T08:08:32.523Z,0.08
2022-12-19T08:09:32.681Z,0.08
2022-12-19T08:10:32.840Z,0.24
2022-12-19T08:11:32.991Z,0
2022-12-19T08:12:33.127Z,0
2022-12-19T08:13:38.050Z,0.08
2022-12-19T08:14:33.428Z,0.08
2022-12-19T08:15:33.564Z,0.24
2022-12-19T08:16:44.110Z,0.08
2022-12-19T08:17:33.884Z,0.08
2022-12-19T08:18:33.929Z,0.08
2022-12-19T08:19:34.095Z,0.24
2022-12-19T08:20:34.275Z,0
2022-12-19T08:21:34.375Z,0.08
2022-12-19T08:22:34.534Z,0
2022-12-19T08:23:34.679Z,0.08
2022-12-19T08:24:34.789Z,0.08
2022-12-19T08:25:34.936Z,0.08
2022-12-19T08:26:39.577Z,0.08
2022-12-19T08:27:35.214Z,0
2022-12-19T08:28:35.350Z,0.08
2022-12-19T08:29:35.517Z,0.24
2022-12-19T08:30:35.642Z,0.08
2022-12-19T08:31:35.753Z,0.24
2022-12-19T08:32:35.851Z,0.24
2022-12-19T08:33:36.002Z,0.32
2022-12-19T08:34:36.168Z,0.24
2022-12-19T08:35:36.305Z,0.32
2022-12-19T08:36:36.404Z,0.4
2022-12-19T08:37:36.555Z,0.4
2022-12-19T08:38:36.729Z,0.32
2022-12-19T08:39:36.864Z,0.4
2022-12-19T08:40:37.015Z,0.4
2022-12-19T08:41:37.176Z,0.32
2022-12-19T08:42:37.316Z,0.4
2022-12-19T08:43:37.432Z,0.4
2022-12-19T08:44:37.587Z,0.4
2022-12-19T08:45:37.765Z,0.4
2022-12-19T08:46:37.958Z,0.48
2022-12-19T08:47:38.026Z,0.48
2022-12-19T08:48:38.219Z,0.48
2022-12-19T08:49:38.336Z,0.48
2022-12-19T08:50:38.501Z,0.64
2022-12-19T08:51:38.619Z,0.64
2022-12-19T08:52:38.782Z,0.64
2022-12-19T08:53:38.943Z,0.64
2022-12-19T08:54:39.081Z,0.8
2022-12-19T08:55:39.258Z,0.8
2022-12-19T08:56:41.330Z,0.88
2022-12-19T08:57:39.556Z,0.88
2022-12-19T08:58:39.702Z,1.04
2022-12-19T08:59:39.844Z,0.88
2022-12-19T09:00:39.979Z,1.04
2022-12-19T09:01:40.135Z,1.04
2022-12-19T09:02:40.334Z,1.12
2022-12-19T09:03:56.213Z,1.12
2022-12-19T09:05:58.992Z,1.28
2022-12-19T09:06:40.793Z,1.44
2022-12-19T09:07:40.918Z,1.44
2022-12-19T09:08:41.059Z,1.44
2022-12-19T09:09:41.167Z,1.28
2022-12-19T09:10:41.309Z,1.28
2022-12-19T09:11:46.625Z,1.44
2022-12-19T09:12:41.609Z,1.44
2022-12-19T09:13:41.772Z,1.44
2022-12-19T09:14:41.922Z,1.6
2022-12-19T09:15:42.134Z,1.44
2022-12-19T09:16:42.306Z,1.44
2022-12-19T09:17:42.373Z,1.52
2022-12-19T09:18:47.974Z,1.52
2022-12-19T09:19:43.035Z,1.6
2022-12-19T09:20:42.798Z,1.68
2022-12-19T09:21:42.927Z,1.68
2022-12-19T09:22:43.027Z,1.68
2022-12-19T09:23:43.178Z,1.6
2022-12-19T09:24:43.342Z,1.6
2022-12-19T09:25:43.482Z,1.6
2022-12-19T09:26:43.654Z,1.6
2022-12-19T09:28:17.827Z,1.68
2022-12-19T09:28:43.839Z,1.68
2022-12-19T09:29:44.008Z,1.68
2022-12-19T09:30:44.193Z,1.68
2022-12-19T09:31:44.276Z,1.68
2022-12-19T09:32:44.427Z,1.84
2022-12-19T09:33:45.102Z,1.92
2022-12-19T09:34:44.672Z,1.92
2022-12-19T09:35:44.805Z,2
2022-12-19T09:36:44.943Z,1.92
2022-12-19T09:37:45.104Z,1.92
2022-12-19T09:38:45.422Z,1.92
2022-12-19T09:39:45.657Z,2
2022-12-19T09:40:45.706Z,2.08
2022-12-19T09:41:45.855Z,2
2022-12-19T09:42:46.017Z,2
2022-12-19T09:43:46.184Z,2.08
2022-12-19T09:44:46.319Z,2
2022-12-19T09:45:46.505Z,2
2022-12-19T09:46:46.556Z,2
2022-12-19T09:47:46.670Z,1.92
2022-12-19T09:48:50.886Z,2
2022-12-19T09:49:47.150Z,2
2022-12-19T09:50:47.269Z,2
2022-12-19T09:51:47.416Z,2.08
2022-12-19T09:52:48.025Z,2
2022-12-19T09:53:48.971Z,2
2022-12-19T09:54:47.893Z,1.92
2022-12-19T09:55:47.974Z,2
2022-12-19T09:56:48.091Z,2
2022-12-19T09:57:48.231Z,2
2022-12-19T09:58:48.381Z,2.08
2022-12-19T09:59:50.083Z,2.08
2022-12-19T10:00:48.670Z,2.08
2022-12-19T10:01:48.934Z,2.08
2022-12-19T10:02:49.519Z,2.24
2022-12-19T10:03:49.508Z,2.24
2022-12-19T10:04:49.544Z,2.24
2022-12-19T10:06:55.436Z,2.4
2022-12-19T10:08:07.487Z,2.4
2022-12-19T10:08:55.431Z,2.32
2022-12-19T10:11:56.753Z,2.32
2022-12-19T10:12:51.526Z,2.64
2022-12-19T10:13:50.376Z,2.48
2022-12-19T10:14:50.525Z,2.64
2022-12-19T10:15:56.045Z,2.64
2022-12-19T10:17:08.792Z,2.48
2022-12-19T10:17:50.957Z,2.64
2022-12-19T10:18:56.188Z,2.88
2022-12-19T10:19:51.260Z,2.88
2022-12-19T10:20:51.446Z,2.88
2022-12-19T10:22:16.767Z,3.12
2022-12-19T10:22:51.701Z,3.04
2022-12-19T10:23:51.830Z,3.12
2022-12-19T10:24:57.661Z,3.12
2022-12-19T10:25:52.083Z,3.04
2022-12-19T10:26:52.225Z,3.04
2022-12-19T10:27:58.376Z,3.12
2022-12-19T10:28:52.538Z,2.88
2022-12-19T10:29:52.676Z,2.8
2022-12-19T10:30:52.894Z,2.8
2022-12-19T10:31:53.539Z,2.8
2022-12-19T10:32:53.076Z,2.8
2022-12-19T10:33:53.249Z,2.64
2022-12-19T10:34:53.379Z,2.64
2022-12-19T10:35:54.122Z,2.64
2022-12-19T10:37:13.275Z,2.72
2022-12-19T10:37:53.812Z,2.72
2022-12-19T10:38:53.990Z,2.72
2022-12-19T10:39:54.089Z,2.8
2022-12-19T10:40:54.247Z,2.64
2022-12-19T10:41:54.363Z,2.48
2022-12-19T10:42:54.533Z,2.48
2022-12-19T10:43:54.672Z,2.32
2022-12-19T10:44:54.813Z,2.4
2022-12-19T10:45:54.938Z,2.4
2022-12-19T10:46:55.131Z,2.32
2022-12-19T10:47:55.306Z,2.32
2022-12-19T10:48:55.453Z,2.24
2022-12-19T10:49:55.605Z,2.24
2022-12-19T10:50:55.735Z,2.32
2022-12-19T10:51:55.872Z,2.4
2022-12-19T10:52:56.019Z,2.4
2022-12-19T10:53:56.130Z,2.4
2022-12-19T10:54:56.266Z,2.4
2022-12-19T10:55:56.420Z,2.32
2022-12-19T10:56:56.517Z,2.32
2022-12-19T10:57:56.629Z,2.32
2022-12-19T10:58:56.777Z,2.32
2022-12-19T10:59:56.998Z,2.32
2022-12-19T11:00:57.061Z,2.4
2022-12-19T11:02:00.580Z,2.32
2022-12-19T11:02:57.490Z,2.32
2022-12-19T11:03:57.488Z,2.32
2022-12-19T11:04:57.741Z,2.32
2022-12-19T11:05:58.636Z,2.32
2022-12-19T11:06:57.913Z,2.4
2022-12-19T11:07:58.039Z,2.32
2022-12-19T11:08:58.248Z,2.24
2022-12-19T11:10:20.567Z,2.08
2022-12-19T11:12:01.246Z,2.24
2022-12-19T11:17:27.380Z,2.24
2022-12-19T11:27:59.881Z,2.48
2022-12-19T11:30:24.527Z,2.64
2022-12-19T11:32:34.198Z,2.48
2022-12-19T11:33:01.370Z,2.4
2022-12-19T11:34:01.472Z,2.4
2022-12-19T11:35:01.631Z,2.4
2022-12-19T11:36:01.772Z,2.32
2022-12-19T11:37:01.921Z,2.4
2022-12-19T11:38:02.086Z,2.48
2022-12-19T11:39:02.232Z,2.4
2022-12-19T11:40:02.376Z,2.4
2022-12-19T11:41:02.541Z,2.48
2022-12-19T11:42:02.697Z,2.4
2022-12-19T11:43:25.864Z,2.4
2022-12-19T11:44:02.972Z,2.48
2022-12-19T11:45:03.137Z,2.4
2022-12-19T11:46:03.274Z,2.32
2022-12-19T11:47:03.426Z,2.4
2022-12-19T11:48:03.585Z,2.4
2022-12-19T11:49:03.940Z,2.32
2022-12-19T11:50:04.104Z,2.4
2022-12-19T11:51:04.244Z,2.32
2022-12-19T11:52:04.398Z,2.32
2022-12-19T11:53:08.340Z,2.24
2022-12-19T11:54:04.715Z,2.24
2022-12-19T11:55:04.838Z,2.32
2022-12-19T11:56:04.984Z,2.24
2022-12-19T11:57:05.146Z,2.24
2022-12-19T11:58:05.268Z,2.24
2022-12-19T11:59:05.411Z,2.24
2022-12-19T12:00:05.986Z,2.08
2022-12-19T12:01:05.696Z,2.32
2022-12-19T12:02:05.917Z,2.32
2022-12-19T12:03:05.964Z,2.32
2022-12-19T12:04:06.177Z,2.4
2022-12-19T12:05:06.273Z,2.48
2022-12-19T12:06:06.389Z,2.48
2022-12-19T12:07:06.773Z,2.48
2022-12-19T12:08:55.254Z,2.32
2022-12-19T12:17:20.411Z,2.08
2022-12-19T12:21:30.008Z,2.08
2022-12-19T12:31:03.441Z,2.32
2022-12-19T12:31:35.430Z,2.08
2022-12-19T12:38:07.323Z,2.24
2022-12-19T12:39:11.008Z,2.4
2022-12-19T12:40:10.777Z,2.4
2022-12-19T12:41:10.931Z,2.32
2022-12-19T12:42:11.075Z,2.32
2022-12-19T12:43:11.221Z,2.32
2022-12-19T12:44:11.336Z,2.32
2022-12-19T12:45:11.476Z,2.32
2022-12-19T12:46:11.652Z,2.32
2022-12-19T12:47:11.727Z,2.4
2022-12-19T12:48:11.876Z,2.4
2022-12-19T12:49:12.042Z,2.4
2022-12-19T12:50:12.187Z,2.48
2022-12-19T12:51:12.329Z,2.48
2022-12-19T12:52:12.487Z,2.64
2022-12-19T12:53:12.738Z,2.48
2022-12-19T12:54:12.799Z,2.48
2022-12-19T12:55:12.898Z,2.48
2022-12-19T12:56:13.040Z,2.48
2022-12-19T12:57:13.196Z,2.48
2022-12-19T12:58:14.686Z,2.48
2022-12-19T12:59:13.508Z,2.4
2022-12-19T13:00:13.656Z,2.4
2022-12-19T13:01:13.853Z,2.4
2022-12-19T13:02:14.038Z,2.4
2022-12-19T13:03:14.371Z,2.4
2022-12-19T13:04:14.204Z,2.4
2022-12-19T13:05:14.358Z,2.32
2022-12-19T13:06:14.506Z,2.48
2022-12-19T13:07:14.670Z,2.4
2022-12-19T13:08:14.805Z,2.4
2022-12-19T13:09:14.911Z,2.4
2022-12-19T13:10:15.063Z,2.4
2022-12-19T13:11:15.222Z,2.4
2022-12-19T13:12:15.371Z,2.32
2022-12-19T13:13:18.648Z,2.4
2022-12-19T13:14:15.680Z,2.48
2022-12-19T13:15:15.829Z,2.64
2022-12-19T13:16:16.007Z,2.48
2022-12-19T13:17:16.070Z,2.48
2022-12-19T13:18:16.227Z,2.48
2022-12-19T13:19:19.824Z,2.64
2022-12-19T13:20:16.534Z,2.72
2022-12-19T13:21:16.675Z,2.64
2022-12-19T13:22:16.873Z,2.64
2022-12-19T13:23:17.029Z,2.64
2022-12-19T13:24:17.161Z,2.64
2022-12-19T13:25:17.350Z,2.72
2022-12-19T13:26:19.720Z,2.72
2022-12-19T13:27:17.597Z,2.4
2022-12-19T13:28:17.749Z,2.4
2022-12-19T13:29:17.894Z,2.4
2022-12-19T13:30:18.047Z,2.48
2022-12-19T13:31:20.210Z,2.48
2022-12-19T13:32:18.252Z,2.4
2022-12-19T13:33:18.404Z,2.4
2022-12-19T13:34:18.558Z,2.4
2022-12-19T13:35:58.321Z,2.48
2022-12-19T13:39:53.727Z,2.32
2022-12-19T13:40:20.830Z,2.32
2022-12-19T13:41:19.510Z,2.32
2022-12-19T13:42:19.671Z,2.4
2022-12-19T13:43:19.813Z,2.4
2022-12-19T13:44:19.991Z,2.4
2022-12-19T13:45:20.126Z,2.4
2022-12-19T13:46:20.289Z,2.32
2022-12-19T13:47:23.605Z,2.32
2022-12-19T13:48:20.473Z,2.24
2022-12-19T13:49:20.639Z,2.24
2022-12-19T13:50:20.788Z,2.32
2022-12-19T13:51:20.897Z,2.24
2022-12-19T13:52:21.032Z,2.32
2022-12-19T13:53:21.175Z,2.32
2022-12-19T13:54:21.286Z,2.4
2022-12-19T13:55:21.433Z,2.4
2022-12-19T13:56:21.584Z,2.32
2022-12-19T13:57:21.740Z,2.4
2022-12-19T13:58:21.882Z,2.32
2022-12-19T13:59:22.030Z,2.4
2022-12-19T14:00:22.143Z,2.32
2022-12-19T14:01:22.346Z,2.32
2022-12-19T14:02:22.526Z,2.32